sensor_id;sensor_type;location;lat;lon;timestamp;P1;durP1;ratioP1;P2;durP2;ratioP2
15331;SDS011;7766;51.534;6.722;2023-09-12T00:01:09;15.30;;;11.85;;
15331;SDS011;7766;51.534;6.722;2023-09-12T00:03:35;17.10;;;11.88;;
15331;SDS011;7766;51.534;6.722;2023-09-12T00:06:01;15.40;;;11.20;;
15331;SDS011;7766;51.534;6.722;2023-09-12T00:08:29;18.58;;;13.15;;
15331;SDS011;7766;51.534;6.722;2023-09-12T00:11:02;15.30;;;12.40;;
15331;SDS011;7766;51.534;6.722;2023-09-12T00:13:28;16.83;;;12.98;;
15331;SDS011;7766;51.534;6.722;2023-09-12T00:15:55;18.45;;;13.35;;
15331;SDS011;7766;51.534;6.722;2023-09-12T00:18:21;16.52;;;13.85;;
15331;SDS011;7766;51.534;6.722;2023-09-12T00:20:46;19.20;;;14.48;;
15331;SDS011;7766;51.534;6.722;2023-09-12T00:23:12;20.50;;;15.10;;
15331;SDS011;7766;51.534;6.722;2023-09-12T00:25:38;31.10;;;23.90;;
15331;SDS011;7766;51.534;6.722;2023-09-12T00:28:04;26.25;;;16.80;;
15331;SDS011;7766;51.534;6.722;2023-09-12T00:30:30;23.50;;;15.55;;
15331;SDS011;7766;51.534;6.722;2023-09-12T00:32:55;20.55;;;15.02;;
15331;SDS011;7766;51.534;6.722;2023-09-12T00:35:21;20.00;;;14.80;;
15331;SDS011;7766;51.534;6.722;2023-09-12T00:37:47;19.38;;;14.10;;
15331;SDS011;7766;51.534;6.722;2023-09-12T00:40:13;21.85;;;14.40;;
15331;SDS011;7766;51.534;6.722;2023-09-12T00:42:39;19.23;;;14.15;;
15331;SDS011;7766;51.534;6.722;2023-09-12T00:45:06;19.13;;;13.93;;
15331;SDS011;7766;51.534;6.722;2023-09-12T00:47:32;18.65;;;13.52;;
15331;SDS011;7766;51.534;6.722;2023-09-12T00:49:58;20.65;;;13.13;;
15331;SDS011;7766;51.534;6.722;2023-09-12T00:52:25;18.77;;;12.93;;
15331;SDS011;7766;51.534;6.722;2023-09-12T00:54:52;15.57;;;12.57;;
15331;SDS011;7766;51.534;6.722;2023-09-12T00:57:19;15.40;;;11.20;;
15331;SDS011;7766;51.534;6.722;2023-09-12T00:59:45;15.68;;;11.60;;
15331;SDS011;7766;51.534;6.722;2023-09-12T01:02:13;16.17;;;10.43;;
15331;SDS011;7766;51.534;6.722;2023-09-12T01:04:39;15.37;;;10.00;;
15331;SDS011;7766;51.534;6.722;2023-09-12T01:07:05;14.02;;;10.77;;
15331;SDS011;7766;51.534;6.722;2023-09-12T01:09:32;12.55;;;10.15;;
15331;SDS011;7766;51.534;6.722;2023-09-12T01:11:59;12.80;;;9.48;;
15331;SDS011;7766;51.534;6.722;2023-09-12T01:14:25;13.07;;;8.80;;
15331;SDS011;7766;51.534;6.722;2023-09-12T01:16:51;11.05;;;8.73;;
15331;SDS011;7766;51.534;6.722;2023-09-12T01:19:18;12.70;;;9.27;;
15331;SDS011;7766;51.534;6.722;2023-09-12T01:22:07;13.32;;;8.73;;
15331;SDS011;7766;51.534;6.722;2023-09-12T01:24:45;9.85;;;8.32;;
15331;SDS011;7766;51.534;6.722;2023-09-12T01:27:22;10.55;;;8.50;;
15331;SDS011;7766;51.534;6.722;2023-09-12T01:29:53;10.00;;;8.80;;
15331;SDS011;7766;51.534;6.722;2023-09-12T01:32:21;11.98;;;9.25;;
15331;SDS011;7766;51.534;6.722;2023-09-12T01:34:47;11.10;;;8.05;;
15331;SDS011;7766;51.534;6.722;2023-09-12T01:37:13;12.23;;;8.73;;
15331;SDS011;7766;51.534;6.722;2023-09-12T01:39:39;10.95;;;8.45;;
15331;SDS011;7766;51.534;6.722;2023-09-12T01:42:05;9.98;;;8.73;;
15331;SDS011;7766;51.534;6.722;2023-09-12T01:44:31;9.70;;;8.70;;
15331;SDS011;7766;51.534;6.722;2023-09-12T01:47:01;12.88;;;9.60;;
15331;SDS011;7766;51.534;6.722;2023-09-12T01:49:28;14.88;;;9.45;;
15331;SDS011;7766;51.534;6.722;2023-09-12T01:51:55;15.43;;;10.35;;
15331;SDS011;7766;51.534;6.722;2023-09-12T01:54:21;19.83;;;11.77;;
15331;SDS011;7766;51.534;6.722;2023-09-12T01:56:47;14.17;;;10.07;;
15331;SDS011;7766;51.534;6.722;2023-09-12T01:59:13;16.50;;;10.95;;
15331;SDS011;7766;51.534;6.722;2023-09-12T02:01:39;12.30;;;9.97;;
15331;SDS011;7766;51.534;6.722;2023-09-12T02:04:07;15.20;;;10.60;;
15331;SDS011;7766;51.534;6.722;2023-09-12T02:06:34;13.80;;;10.43;;
15331;SDS011;7766;51.534;6.722;2023-09-12T02:09:00;14.10;;;9.63;;
15331;SDS011;7766;51.534;6.722;2023-09-12T02:11:26;15.13;;;10.20;;
15331;SDS011;7766;51.534;6.722;2023-09-12T02:13:52;16.97;;;11.83;;
15331;SDS011;7766;51.534;6.722;2023-09-12T02:16:18;15.93;;;10.40;;
15331;SDS011;7766;51.534;6.722;2023-09-12T02:18:44;14.53;;;10.50;;
15331;SDS011;7766;51.534;6.722;2023-09-12T02:21:10;14.70;;;10.20;;
15331;SDS011;7766;51.534;6.722;2023-09-12T02:23:36;15.50;;;10.37;;
15331;SDS011;7766;51.534;6.722;2023-09-12T02:26:02;15.13;;;10.10;;
15331;SDS011;7766;51.534;6.722;2023-09-12T02:28:28;15.10;;;8.10;;
15331;SDS011;7766;51.534;6.722;2023-09-12T02:30:54;11.80;;;8.73;;
15331;SDS011;7766;51.534;6.722;2023-09-12T02:33:20;12.90;;;8.97;;
15331;SDS011;7766;51.534;6.722;2023-09-12T02:35:46;11.73;;;9.20;;
15331;SDS011;7766;51.534;6.722;2023-09-12T02:38:13;11.17;;;8.87;;
15331;SDS011;7766;51.534;6.722;2023-09-12T02:40:39;13.80;;;10.07;;
15331;SDS011;7766;51.534;6.722;2023-09-12T02:43:05;11.57;;;8.93;;
15331;SDS011;7766;51.534;6.722;2023-09-12T02:45:31;11.77;;;8.53;;
15331;SDS011;7766;51.534;6.722;2023-09-12T02:47:57;9.90;;;8.73;;
15331;SDS011;7766;51.534;6.722;2023-09-12T02:50:23;12.53;;;9.80;;
15331;SDS011;7766;51.534;6.722;2023-09-12T02:52:49;11.60;;;9.17;;
15331;SDS011;7766;51.534;6.722;2023-09-12T02:55:15;14.63;;;9.73;;
15331;SDS011;7766;51.534;6.722;2023-09-12T02:57:41;11.23;;;9.20;;
15331;SDS011;7766;51.534;6.722;2023-09-12T03:00:08;12.30;;;8.73;;
15331;SDS011;7766;51.534;6.722;2023-09-12T03:02:34;10.53;;;8.73;;
15331;SDS011;7766;51.534;6.722;2023-09-12T03:05:00;11.47;;;8.70;;
15331;SDS011;7766;51.534;6.722;2023-09-12T03:07:26;11.17;;;9.07;;
15331;SDS011;7766;51.534;6.722;2023-09-12T03:09:52;10.93;;;8.93;;
15331;SDS011;7766;51.534;6.722;2023-09-12T03:12:18;10.47;;;8.63;;
15331;SDS011;7766;51.534;6.722;2023-09-12T03:14:43;10.33;;;9.13;;
15331;SDS011;7766;51.534;6.722;2023-09-12T03:17:09;14.23;;;9.73;;
15331;SDS011;7766;51.534;6.722;2023-09-12T03:19:35;15.33;;;9.77;;
15331;SDS011;7766;51.534;6.722;2023-09-12T03:22:01;14.10;;;9.40;;
15331;SDS011;7766;51.534;6.722;2023-09-12T03:24:27;12.10;;;9.60;;
15331;SDS011;7766;51.534;6.722;2023-09-12T03:26:53;13.00;;;9.47;;
15331;SDS011;7766;51.534;6.722;2023-09-12T03:29:19;10.97;;;9.17;;
15331;SDS011;7766;51.534;6.722;2023-09-12T03:31:45;12.03;;;9.47;;
15331;SDS011;7766;51.534;6.722;2023-09-12T03:34:11;13.20;;;11.07;;
15331;SDS011;7766;51.534;6.722;2023-09-12T03:36:37;15.33;;;11.73;;
15331;SDS011;7766;51.534;6.722;2023-09-12T03:39:03;15.63;;;12.40;;
15331;SDS011;7766;51.534;6.722;2023-09-12T03:41:33;17.40;;;12.30;;
15331;SDS011;7766;51.534;6.722;2023-09-12T03:43:59;15.70;;;11.73;;
15331;SDS011;7766;51.534;6.722;2023-09-12T03:46:25;18.97;;;13.80;;
15331;SDS011;7766;51.534;6.722;2023-09-12T03:48:51;15.93;;;13.50;;
15331;SDS011;7766;51.534;6.722;2023-09-12T03:51:17;21.47;;;13.77;;
15331;SDS011;7766;51.534;6.722;2023-09-12T03:53:43;17.73;;;13.27;;
15331;SDS011;7766;51.534;6.722;2023-09-12T03:56:09;15.83;;;13.37;;
15331;SDS011;7766;51.534;6.722;2023-09-12T03:58:37;20.00;;;14.87;;
15331;SDS011;7766;51.534;6.722;2023-09-12T04:01:04;18.03;;;14.30;;
15331;SDS011;7766;51.534;6.722;2023-09-12T04:03:30;23.57;;;16.80;;
15331;SDS011;7766;51.534;6.722;2023-09-12T04:05:56;20.50;;;15.87;;
15331;SDS011;7766;51.534;6.722;2023-09-12T04:08:22;19.67;;;15.20;;
15331;SDS011;7766;51.534;6.722;2023-09-12T04:10:47;18.90;;;15.23;;
15331;SDS011;7766;51.534;6.722;2023-09-12T04:13:13;21.63;;;14.80;;
15331;SDS011;7766;51.534;6.722;2023-09-12T04:15:39;18.80;;;14.33;;
15331;SDS011;7766;51.534;6.722;2023-09-12T04:18:05;18.67;;;14.87;;
15331;SDS011;7766;51.534;6.722;2023-09-12T04:20:33;21.43;;;16.27;;
15331;SDS011;7766;51.534;6.722;2023-09-12T04:23:02;19.43;;;16.67;;
15331;SDS011;7766;51.534;6.722;2023-09-12T04:25:28;18.60;;;14.67;;
15331;SDS011;7766;51.534;6.722;2023-09-12T04:27:54;19.40;;;14.77;;
15331;SDS011;7766;51.534;6.722;2023-09-12T04:30:20;19.50;;;15.30;;
15331;SDS011;7766;51.534;6.722;2023-09-12T04:32:47;22.47;;;16.63;;
15331;SDS011;7766;51.534;6.722;2023-09-12T04:35:12;17.40;;;15.20;;
15331;SDS011;7766;51.534;6.722;2023-09-12T04:37:38;18.43;;;14.60;;
15331;SDS011;7766;51.534;6.722;2023-09-12T04:40:05;17.27;;;15.10;;
15331;SDS011;7766;51.534;6.722;2023-09-12T04:42:31;19.87;;;17.10;;
15331;SDS011;7766;51.534;6.722;2023-09-12T04:44:58;22.77;;;18.13;;
15331;SDS011;7766;51.534;6.722;2023-09-12T04:47:24;22.00;;;16.13;;
15331;SDS011;7766;51.534;6.722;2023-09-12T04:49:50;20.70;;;15.53;;
15331;SDS011;7766;51.534;6.722;2023-09-12T04:52:16;18.57;;;14.73;;
15331;SDS011;7766;51.534;6.722;2023-09-12T04:54:42;17.97;;;13.97;;
15331;SDS011;7766;51.534;6.722;2023-09-12T04:57:08;16.53;;;13.83;;
15331;SDS011;7766;51.534;6.722;2023-09-12T04:59:34;17.33;;;13.77;;
15331;SDS011;7766;51.534;6.722;2023-09-12T05:02:00;16.43;;;12.60;;
15331;SDS011;7766;51.534;6.722;2023-09-12T05:04:28;15.30;;;13.20;;
15331;SDS011;7766;51.534;6.722;2023-09-12T05:06:54;13.70;;;12.30;;
15331;SDS011;7766;51.534;6.722;2023-09-12T05:09:20;14.70;;;12.07;;
15331;SDS011;7766;51.534;6.722;2023-09-12T05:11:46;16.80;;;12.70;;
15331;SDS011;7766;51.534;6.722;2023-09-12T05:14:12;13.27;;;11.37;;
15331;SDS011;7766;51.534;6.722;2023-09-12T05:16:38;15.53;;;12.70;;
15331;SDS011;7766;51.534;6.722;2023-09-12T05:19:04;16.93;;;13.43;;
15331;SDS011;7766;51.534;6.722;2023-09-12T05:21:30;18.33;;;12.93;;
15331;SDS011;7766;51.534;6.722;2023-09-12T05:23:56;16.90;;;12.83;;
15331;SDS011;7766;51.534;6.722;2023-09-12T05:26:22;16.47;;;12.20;;
15331;SDS011;7766;51.534;6.722;2023-09-12T05:28:48;16.50;;;13.27;;
15331;SDS011;7766;51.534;6.722;2023-09-12T05:31:14;15.63;;;12.70;;
15331;SDS011;7766;51.534;6.722;2023-09-12T05:33:39;14.03;;;12.03;;
15331;SDS011;7766;51.534;6.722;2023-09-12T05:36:05;16.60;;;12.60;;
15331;SDS011;7766;51.534;6.722;2023-09-12T05:38:31;15.13;;;12.03;;
15331;SDS011;7766;51.534;6.722;2023-09-12T05:40:57;16.60;;;11.83;;
15331;SDS011;7766;51.534;6.722;2023-09-12T05:43:22;14.27;;;11.97;;
15331;SDS011;7766;51.534;6.722;2023-09-12T05:45:48;16.93;;;12.63;;
15331;SDS011;7766;51.534;6.722;2023-09-12T05:48:14;19.33;;;13.27;;
15331;SDS011;7766;51.534;6.722;2023-09-12T05:50:39;16.57;;;11.27;;
15331;SDS011;7766;51.534;6.722;2023-09-12T05:53:05;15.83;;;12.10;;
15331;SDS011;7766;51.534;6.722;2023-09-12T05:55:31;17.77;;;12.30;;
15331;SDS011;7766;51.534;6.722;2023-09-12T05:57:57;16.03;;;13.03;;
15331;SDS011;7766;51.534;6.722;2023-09-12T06:00:23;18.47;;;12.13;;
15331;SDS011;7766;51.534;6.722;2023-09-12T06:02:50;15.87;;;12.47;;
15331;SDS011;7766;51.534;6.722;2023-09-12T06:05:16;21.30;;;15.33;;
15331;SDS011;7766;51.534;6.722;2023-09-12T06:07:42;18.27;;;13.20;;
15331;SDS011;7766;51.534;6.722;2023-09-12T06:10:08;15.43;;;11.43;;
15331;SDS011;7766;51.534;6.722;2023-09-12T06:12:34;20.03;;;13.03;;
15331;SDS011;7766;51.534;6.722;2023-09-12T06:15:01;18.20;;;13.90;;
15331;SDS011;7766;51.534;6.722;2023-09-12T06:17:27;18.83;;;13.50;;
15331;SDS011;7766;51.534;6.722;2023-09-12T06:19:54;17.13;;;13.97;;
15331;SDS011;7766;51.534;6.722;2023-09-12T06:22:19;17.77;;;12.03;;
15331;SDS011;7766;51.534;6.722;2023-09-12T06:24:45;17.33;;;13.43;;
15331;SDS011;7766;51.534;6.722;2023-09-12T06:27:11;17.23;;;13.30;;
15331;SDS011;7766;51.534;6.722;2023-09-12T06:29:43;18.50;;;14.80;;
15331;SDS011;7766;51.534;6.722;2023-09-12T06:32:09;16.50;;;12.77;;
15331;SDS011;7766;51.534;6.722;2023-09-12T06:34:34;16.70;;;13.33;;
15331;SDS011;7766;51.534;6.722;2023-09-12T06:37:00;20.77;;;13.23;;
15331;SDS011;7766;51.534;6.722;2023-09-12T06:39:26;20.63;;;14.17;;
15331;SDS011;7766;51.534;6.722;2023-09-12T06:41:52;16.53;;;13.63;;
15331;SDS011;7766;51.534;6.722;2023-09-12T06:44:18;19.93;;;13.90;;
15331;SDS011;7766;51.534;6.722;2023-09-12T06:46:44;17.13;;;13.53;;
15331;SDS011;7766;51.534;6.722;2023-09-12T06:49:10;18.17;;;13.63;;
15331;SDS011;7766;51.534;6.722;2023-09-12T06:51:36;19.87;;;14.27;;
15331;SDS011;7766;51.534;6.722;2023-09-12T06:54:02;19.83;;;14.10;;
15331;SDS011;7766;51.534;6.722;2023-09-12T06:56:28;19.83;;;14.87;;
15331;SDS011;7766;51.534;6.722;2023-09-12T06:58:53;19.50;;;14.83;;
15331;SDS011;7766;51.534;6.722;2023-09-12T07:01:20;18.20;;;13.67;;
15331;SDS011;7766;51.534;6.722;2023-09-12T07:03:46;20.57;;;13.57;;
15331;SDS011;7766;51.534;6.722;2023-09-12T07:06:11;20.77;;;14.30;;
15331;SDS011;7766;51.534;6.722;2023-09-12T07:08:38;18.13;;;14.03;;
15331;SDS011;7766;51.534;6.722;2023-09-12T07:11:04;19.97;;;14.77;;
15331;SDS011;7766;51.534;6.722;2023-09-12T07:13:31;17.37;;;13.03;;
15331;SDS011;7766;51.534;6.722;2023-09-12T07:15:57;19.40;;;14.03;;
15331;SDS011;7766;51.534;6.722;2023-09-12T07:18:24;15.00;;;12.20;;
15331;SDS011;7766;51.534;6.722;2023-09-12T07:21:03;17.00;;;12.67;;
15331;SDS011;7766;51.534;6.722;2023-09-12T07:23:32;17.20;;;12.90;;
15331;SDS011;7766;51.534;6.722;2023-09-12T07:25:58;19.07;;;12.93;;
15331;SDS011;7766;51.534;6.722;2023-09-12T07:28:24;17.53;;;13.93;;
15331;SDS011;7766;51.534;6.722;2023-09-12T07:30:50;18.17;;;13.47;;
15331;SDS011;7766;51.534;6.722;2023-09-12T07:33:16;19.40;;;12.43;;
15331;SDS011;7766;51.534;6.722;2023-09-12T07:35:42;18.03;;;13.37;;
15331;SDS011;7766;51.534;6.722;2023-09-12T07:38:07;17.70;;;13.80;;
15331;SDS011;7766;51.534;6.722;2023-09-12T07:40:33;18.97;;;15.00;;
15331;SDS011;7766;51.534;6.722;2023-09-12T07:42:59;17.60;;;14.53;;
15331;SDS011;7766;51.534;6.722;2023-09-12T07:45:24;20.70;;;14.70;;
15331;SDS011;7766;51.534;6.722;2023-09-12T07:47:50;19.27;;;15.17;;
15331;SDS011;7766;51.534;6.722;2023-09-12T07:50:16;22.23;;;15.53;;
15331;SDS011;7766;51.534;6.722;2023-09-12T07:52:42;22.57;;;15.53;;
15331;SDS011;7766;51.534;6.722;2023-09-12T07:55:08;21.27;;;17.10;;
15331;SDS011;7766;51.534;6.722;2023-09-12T07:57:34;22.07;;;17.00;;
15331;SDS011;7766;51.534;6.722;2023-09-12T07:59:59;24.80;;;19.17;;
15331;SDS011;7766;51.534;6.722;2023-09-12T08:02:25;25.03;;;19.43;;
15331;SDS011;7766;51.534;6.722;2023-09-12T08:04:51;25.83;;;18.40;;
15331;SDS011;7766;51.534;6.722;2023-09-12T08:07:18;42.47;;;34.30;;
15331;SDS011;7766;51.534;6.722;2023-09-12T08:09:48;25.30;;;19.43;;
15331;SDS011;7766;51.534;6.722;2023-09-12T08:12:14;24.97;;;19.37;;
15331;SDS011;7766;51.534;6.722;2023-09-12T08:14:40;27.00;;;20.27;;
15331;SDS011;7766;51.534;6.722;2023-09-12T08:17:06;27.73;;;21.37;;
15331;SDS011;7766;51.534;6.722;2023-09-12T08:19:32;30.87;;;21.60;;
15331;SDS011;7766;51.534;6.722;2023-09-12T08:21:58;27.37;;;20.93;;
15331;SDS011;7766;51.534;6.722;2023-09-12T08:24:24;30.47;;;21.67;;
15331;SDS011;7766;51.534;6.722;2023-09-12T08:26:50;25.33;;;19.57;;
15331;SDS011;7766;51.534;6.722;2023-09-12T08:29:15;27.50;;;21.65;;
15331;SDS011;7766;51.534;6.722;2023-09-12T08:31:41;26.83;;;20.50;;
15331;SDS011;7766;51.534;6.722;2023-09-12T08:34:07;27.53;;;20.33;;
15331;SDS011;7766;51.534;6.722;2023-09-12T08:36:33;28.13;;;20.63;;
15331;SDS011;7766;51.534;6.722;2023-09-12T08:39:01;26.00;;;20.00;;
15331;SDS011;7766;51.534;6.722;2023-09-12T08:41:26;23.40;;;18.98;;
15331;SDS011;7766;51.534;6.722;2023-09-12T08:43:52;24.85;;;18.67;;
15331;SDS011;7766;51.534;6.722;2023-09-12T08:46:18;25.42;;;18.58;;
15331;SDS011;7766;51.534;6.722;2023-09-12T08:48:45;23.55;;;18.17;;
15331;SDS011;7766;51.534;6.722;2023-09-12T08:51:12;20.00;;;14.75;;
15331;SDS011;7766;51.534;6.722;2023-09-12T08:53:38;20.20;;;14.95;;
15331;SDS011;7766;51.534;6.722;2023-09-12T08:56:04;19.73;;;15.57;;
15331;SDS011;7766;51.534;6.722;2023-09-12T08:58:31;20.98;;;13.50;;
15331;SDS011;7766;51.534;6.722;2023-09-12T09:00:58;17.00;;;11.93;;
15331;SDS011;7766;51.534;6.722;2023-09-12T09:03:25;15.25;;;12.52;;
15331;SDS011;7766;51.534;6.722;2023-09-12T09:05:51;16.15;;;13.32;;
15331;SDS011;7766;51.534;6.722;2023-09-12T09:08:19;16.70;;;11.93;;
15331;SDS011;7766;51.534;6.722;2023-09-12T09:10:54;17.30;;;13.38;;
15331;SDS011;7766;51.534;6.722;2023-09-12T09:13:20;15.30;;;11.95;;
15331;SDS011;7766;51.534;6.722;2023-09-12T09:15:45;15.20;;;11.57;;
15331;SDS011;7766;51.534;6.722;2023-09-12T09:18:12;14.77;;;11.50;;
15331;SDS011;7766;51.534;6.722;2023-09-12T09:20:38;13.65;;;11.75;;
15331;SDS011;7766;51.534;6.722;2023-09-12T09:23:07;13.88;;;10.70;;
15331;SDS011;7766;51.534;6.722;2023-09-12T09:25:35;11.13;;;9.13;;
15331;SDS011;7766;51.534;6.722;2023-09-12T09:28:04;10.20;;;8.70;;
15331;SDS011;7766;51.534;6.722;2023-09-12T09:30:40;8.80;;;8.00;;
15331;SDS011;7766;51.534;6.722;2023-09-12T09:33:07;9.80;;;8.10;;
15331;SDS011;7766;51.534;6.722;2023-09-12T09:35:33;7.57;;;6.18;;
15331;SDS011;7766;51.534;6.722;2023-09-12T09:37:59;5.40;;;4.90;;
15331;SDS011;7766;51.534;6.722;2023-09-12T09:40:25;6.20;;;4.80;;
15331;SDS011;7766;51.534;6.722;2023-09-12T09:43:09;6.47;;;4.38;;
15331;SDS011;7766;51.534;6.722;2023-09-12T09:45:42;6.30;;;4.70;;
15331;SDS011;7766;51.534;6.722;2023-09-12T09:48:08;6.20;;;4.68;;
15331;SDS011;7766;51.534;6.722;2023-09-12T09:50:34;5.18;;;4.45;;
15331;SDS011;7766;51.534;6.722;2023-09-12T09:53:03;6.28;;;4.38;;
15331;SDS011;7766;51.534;6.722;2023-09-12T09:55:33;4.22;;;3.80;;
15331;SDS011;7766;51.534;6.722;2023-09-12T09:57:59;4.72;;;3.92;;
15331;SDS011;7766;51.534;6.722;2023-09-12T10:00:25;4.65;;;4.13;;
15331;SDS011;7766;51.534;6.722;2023-09-12T10:02:54;4.60;;;4.15;;
15331;SDS011;7766;51.534;6.722;2023-09-12T10:05:21;3.92;;;3.40;;
15331;SDS011;7766;51.534;6.722;2023-09-12T10:07:48;5.15;;;3.80;;
15331;SDS011;7766;51.534;6.722;2023-09-12T10:10:17;5.10;;;3.92;;
15331;SDS011;7766;51.534;6.722;2023-09-12T10:12:51;4.78;;;3.40;;
15331;SDS011;7766;51.534;6.722;2023-09-12T10:15:19;5.25;;;4.18;;
15331;SDS011;7766;51.534;6.722;2023-09-12T10:17:48;6.25;;;3.85;;
15331;SDS011;7766;51.534;6.722;2023-09-12T10:20:19;6.60;;;4.82;;
15331;SDS011;7766;51.534;6.722;2023-09-12T10:25:20;8.32;;;4.88;;
15331;SDS011;7766;51.534;6.722;2023-09-12T10:27:47;5.60;;;4.93;;
15331;SDS011;7766;51.534;6.722;2023-09-12T10:30:13;11.20;;;7.72;;
15331;SDS011;7766;51.534;6.722;2023-09-12T10:32:39;6.28;;;5.00;;
15331;SDS011;7766;51.534;6.722;2023-09-12T10:35:06;5.85;;;4.47;;
15331;SDS011;7766;51.534;6.722;2023-09-12T10:37:33;5.00;;;4.40;;
15331;SDS011;7766;51.534;6.722;2023-09-12T10:40:00;5.22;;;4.13;;
15331;SDS011;7766;51.534;6.722;2023-09-12T10:42:28;5.95;;;4.35;;
15331;SDS011;7766;51.534;6.722;2023-09-12T10:44:55;4.95;;;4.18;;
15331;SDS011;7766;51.534;6.722;2023-09-12T10:47:21;5.00;;;3.92;;
15331;SDS011;7766;51.534;6.722;2023-09-12T10:49:47;4.35;;;3.42;;
15331;SDS011;7766;51.534;6.722;2023-09-12T10:52:23;4.00;;;3.60;;
15331;SDS011;7766;51.534;6.722;2023-09-12T10:54:50;5.45;;;4.20;;
15331;SDS011;7766;51.534;6.722;2023-09-12T10:57:16;4.45;;;3.97;;
15331;SDS011;7766;51.534;6.722;2023-09-12T11:00:08;5.65;;;3.58;;
15331;SDS011;7766;51.534;6.722;2023-09-12T11:02:38;5.80;;;4.22;;
15331;SDS011;7766;51.534;6.722;2023-09-12T11:07:49;6.75;;;5.07;;
15331;SDS011;7766;51.534;6.722;2023-09-12T11:12:41;5.13;;;4.72;;
15331;SDS011;7766;51.534;6.722;2023-09-12T11:15:07;8.35;;;6.55;;
15331;SDS011;7766;51.534;6.722;2023-09-12T11:17:39;8.40;;;6.28;;
15331;SDS011;7766;51.534;6.722;2023-09-12T11:20:05;8.82;;;7.68;;
15331;SDS011;7766;51.534;6.722;2023-09-12T11:22:41;9.38;;;7.75;;
15331;SDS011;7766;51.534;6.722;2023-09-12T11:25:20;9.43;;;7.85;;
15331;SDS011;7766;51.534;6.722;2023-09-12T11:30:23;8.88;;;7.93;;
15331;SDS011;7766;51.534;6.722;2023-09-12T11:32:59;8.95;;;8.07;;
15331;SDS011;7766;51.534;6.722;2023-09-12T11:35:29;9.27;;;8.13;;
15331;SDS011;7766;51.534;6.722;2023-09-12T11:38:00;9.00;;;8.10;;
15331;SDS011;7766;51.534;6.722;2023-09-12T11:42:59;10.07;;;8.40;;
15331;SDS011;7766;51.534;6.722;2023-09-12T11:45:25;9.68;;;8.73;;
15331;SDS011;7766;51.534;6.722;2023-09-12T11:47:55;8.82;;;7.70;;
15331;SDS011;7766;51.534;6.722;2023-09-12T11:50:34;10.40;;;8.95;;
15331;SDS011;7766;51.534;6.722;2023-09-12T11:55:30;9.27;;;8.20;;
15331;SDS011;7766;51.534;6.722;2023-09-12T11:57:56;9.18;;;7.78;;
15331;SDS011;7766;51.534;6.722;2023-09-12T12:00:22;8.45;;;7.63;;
15331;SDS011;7766;51.534;6.722;2023-09-12T12:02:51;8.95;;;7.07;;
15331;SDS011;7766;51.534;6.722;2023-09-12T12:05:17;8.65;;;6.78;;
15331;SDS011;7766;51.534;6.722;2023-09-12T12:07:42;7.50;;;5.68;;
15331;SDS011;7766;51.534;6.722;2023-09-12T12:10:10;6.38;;;5.68;;
15331;SDS011;7766;51.534;6.722;2023-09-12T12:12:36;6.15;;;5.55;;
15331;SDS011;7766;51.534;6.722;2023-09-12T12:15:02;6.45;;;5.75;;
15331;SDS011;7766;51.534;6.722;2023-09-12T12:17:28;7.00;;;5.93;;
15331;SDS011;7766;51.534;6.722;2023-09-12T12:19:54;6.35;;;5.45;;
15331;SDS011;7766;51.534;6.722;2023-09-12T12:22:20;7.13;;;5.28;;
15331;SDS011;7766;51.534;6.722;2023-09-12T12:24:46;7.00;;;5.53;;
15331;SDS011;7766;51.534;6.722;2023-09-12T12:27:15;6.40;;;5.53;;
15331;SDS011;7766;51.534;6.722;2023-09-12T12:29:41;6.97;;;5.28;;
15331;SDS011;7766;51.534;6.722;2023-09-12T12:32:08;6.85;;;5.18;;
15331;SDS011;7766;51.534;6.722;2023-09-12T12:34:35;5.93;;;5.20;;
15331;SDS011;7766;51.534;6.722;2023-09-12T12:37:02;7.80;;;5.22;;
15331;SDS011;7766;51.534;6.722;2023-09-12T12:39:28;6.75;;;5.80;;
15331;SDS011;7766;51.534;6.722;2023-09-12T12:41:54;6.50;;;5.82;;
15331;SDS011;7766;51.534;6.722;2023-09-12T12:44:21;6.88;;;5.80;;
15331;SDS011;7766;51.534;6.722;2023-09-12T12:46:51;6.43;;;5.82;;
15331;SDS011;7766;51.534;6.722;2023-09-12T12:49:18;6.38;;;5.55;;
15331;SDS011;7766;51.534;6.722;2023-09-12T12:51:44;6.22;;;5.63;;
15331;SDS011;7766;51.534;6.722;2023-09-12T12:54:10;6.18;;;5.57;;
15331;SDS011;7766;51.534;6.722;2023-09-12T12:56:36;7.35;;;5.53;;
15331;SDS011;7766;51.534;6.722;2023-09-12T12:59:04;6.63;;;5.70;;
15331;SDS011;7766;51.534;6.722;2023-09-12T13:01:33;6.40;;;5.15;;
15331;SDS011;7766;51.534;6.722;2023-09-12T13:03:59;6.63;;;5.55;;
15331;SDS011;7766;51.534;6.722;2023-09-12T13:06:25;6.68;;;5.25;;
15331;SDS011;7766;51.534;6.722;2023-09-12T13:08:53;6.72;;;4.65;;
15331;SDS011;7766;51.534;6.722;2023-09-12T13:11:18;5.90;;;5.10;;
15331;SDS011;7766;51.534;6.722;2023-09-12T13:13:45;6.20;;;5.60;;
15331;SDS011;7766;51.534;6.722;2023-09-12T13:16:13;5.65;;;5.05;;
15331;SDS011;7766;51.534;6.722;2023-09-12T13:18:39;5.75;;;4.97;;
15331;SDS011;7766;51.534;6.722;2023-09-12T13:21:05;4.82;;;4.22;;
15331;SDS011;7766;51.534;6.722;2023-09-12T13:23:35;4.78;;;4.38;;
15331;SDS011;7766;51.534;6.722;2023-09-12T13:26:02;4.70;;;4.30;;
15331;SDS011;7766;51.534;6.722;2023-09-12T13:28:28;5.38;;;4.78;;
15331;SDS011;7766;51.534;6.722;2023-09-12T13:30:54;7.50;;;5.88;;
15331;SDS011;7766;51.534;6.722;2023-09-12T13:33:20;7.47;;;5.68;;
15331;SDS011;7766;51.534;6.722;2023-09-12T13:35:48;6.35;;;5.15;;
15331;SDS011;7766;51.534;6.722;2023-09-12T13:38:14;5.65;;;4.85;;
15331;SDS011;7766;51.534;6.722;2023-09-12T13:40:42;5.88;;;5.13;;
15331;SDS011;7766;51.534;6.722;2023-09-12T13:43:08;6.25;;;5.43;;
15331;SDS011;7766;51.534;6.722;2023-09-12T13:45:34;5.72;;;4.95;;
15331;SDS011;7766;51.534;6.722;2023-09-12T13:48:00;5.57;;;4.70;;
15331;SDS011;7766;51.534;6.722;2023-09-12T13:50:26;5.78;;;5.13;;
15331;SDS011;7766;51.534;6.722;2023-09-12T13:52:58;8.00;;;5.25;;
15331;SDS011;7766;51.534;6.722;2023-09-12T13:55:25;7.88;;;5.63;;
15331;SDS011;7766;51.534;6.722;2023-09-12T13:57:50;9.32;;;5.90;;
15331;SDS011;7766;51.534;6.722;2023-09-12T14:00:16;7.63;;;4.65;;
15331;SDS011;7766;51.534;6.722;2023-09-12T14:02:42;6.65;;;5.78;;
15331;SDS011;7766;51.534;6.722;2023-09-12T14:05:09;7.78;;;5.32;;
15331;SDS011;7766;51.534;6.722;2023-09-12T14:07:35;6.68;;;6.00;;
15331;SDS011;7766;51.534;6.722;2023-09-12T14:10:02;10.38;;;5.60;;
15331;SDS011;7766;51.534;6.722;2023-09-12T14:12:28;6.03;;;5.18;;
15331;SDS011;7766;51.534;6.722;2023-09-12T14:14:53;10.20;;;6.88;;
15331;SDS011;7766;51.534;6.722;2023-09-12T14:17:19;7.38;;;6.60;;
15331;SDS011;7766;51.534;6.722;2023-09-12T14:19:45;7.85;;;6.25;;
15331;SDS011;7766;51.534;6.722;2023-09-12T14:22:11;7.22;;;5.90;;
15331;SDS011;7766;51.534;6.722;2023-09-12T14:24:37;6.43;;;5.18;;
15331;SDS011;7766;51.534;6.722;2023-09-12T14:27:04;5.72;;;4.93;;
15331;SDS011;7766;51.534;6.722;2023-09-12T14:29:29;5.53;;;4.53;;
15331;SDS011;7766;51.534;6.722;2023-09-12T14:31:55;6.95;;;5.43;;
15331;SDS011;7766;51.534;6.722;2023-09-12T14:34:27;6.22;;;5.00;;
15331;SDS011;7766;51.534;6.722;2023-09-12T14:36:54;6.45;;;5.70;;
15331;SDS011;7766;51.534;6.722;2023-09-12T14:39:20;5.35;;;4.85;;
15331;SDS011;7766;51.534;6.722;2023-09-12T14:41:46;7.57;;;6.00;;
15331;SDS011;7766;51.534;6.722;2023-09-12T14:44:17;6.63;;;5.35;;
15331;SDS011;7766;51.534;6.722;2023-09-12T14:46:43;7.18;;;6.15;;
15331;SDS011;7766;51.534;6.722;2023-09-12T14:49:09;5.82;;;5.00;;
15331;SDS011;7766;51.534;6.722;2023-09-12T14:51:35;6.65;;;4.93;;
15331;SDS011;7766;51.534;6.722;2023-09-12T14:54:02;5.38;;;4.43;;
15331;SDS011;7766;51.534;6.722;2023-09-12T14:56:28;4.40;;;3.92;;
15331;SDS011;7766;51.534;6.722;2023-09-12T14:58:54;4.80;;;3.90;;